createdAt,value
2019-05-20T00:00:50.742Z,0.30
2019-05-20T00:03:21.814Z,0.40
2019-05-20T00:05:53.044Z,0.40
2019-05-20T00:08:24.091Z,0.40
2019-05-20T00:10:55.215Z,0.40
2019-05-20T00:13:26.247Z,0.53
2019-05-20T00:15:57.271Z,0.40
2019-05-20T00:18:28.301Z,0.53
2019-05-20T00:20:59.324Z,1.23
2019-05-20T00:23:30.352Z,0.50
2019-05-20T00:26:02.106Z,0.50
2019-05-20T00:28:33.457Z,0.53
2019-05-20T00:31:04.488Z,0.40
2019-05-20T00:33:35.504Z,0.50
2019-05-20T00:36:06.867Z,0.40
2019-05-20T00:38:37.960Z,0.40
2019-05-20T00:41:08.974Z,0.40
2019-05-20T00:43:39.999Z,0.62
2019-05-20T00:46:11.000Z,0.27
2019-05-20T00:48:42.361Z,0.50
2019-05-20T00:51:13.530Z,0.40
2019-05-20T00:53:44.567Z,0.45
2019-05-20T00:56:15.559Z,0.40
2019-05-20T00:58:46.585Z,0.50
2019-05-20T01:01:17.681Z,0.43
2019-05-20T01:03:48.725Z,0.40
2019-05-20T01:06:19.728Z,0.30
2019-05-20T01:08:50.768Z,0.30
2019-05-20T01:11:21.833Z,0.53
2019-05-20T01:13:53.063Z,0.40
2019-05-20T01:16:24.310Z,0.50
2019-05-20T01:18:56.367Z,0.60
2019-05-20T01:21:27.448Z,0.43
2019-05-20T01:23:58.546Z,0.40
2019-05-20T01:26:29.672Z,0.30
2019-05-20T01:29:00.759Z,0.40
2019-05-20T01:31:32.752Z,0.40
2019-05-20T01:34:03.939Z,0.50
2019-05-20T01:36:34.946Z,0.50
2019-05-20T01:39:07.391Z,0.33
2019-05-20T01:41:38.398Z,0.60
2019-05-20T01:44:09.466Z,0.50
2019-05-20T01:46:40.471Z,0.40
2019-05-20T01:49:11.502Z,0.40
2019-05-20T01:51:42.552Z,0.50
2019-05-20T01:54:13.817Z,0.50
2019-05-20T01:56:44.794Z,0.57
2019-05-20T01:59:15.817Z,0.40
2019-05-20T02:01:46.804Z,0.42
2019-05-20T02:04:18.007Z,0.53
2019-05-20T02:06:49.264Z,0.40
2019-05-20T02:09:21.587Z,0.40
2019-05-20T02:11:52.801Z,0.60
2019-05-20T02:14:25.656Z,0.40
2019-05-20T02:16:57.909Z,0.50
2019-05-20T02:19:28.916Z,0.43
2019-05-20T02:21:59.884Z,0.50
2019-05-20T02:24:31.012Z,0.50
2019-05-20T02:27:02.385Z,0.57
2019-05-20T02:29:33.399Z,0.55
2019-05-20T02:32:04.381Z,0.37
2019-05-20T02:34:35.400Z,0.53
2019-05-20T02:37:06.464Z,0.55
2019-05-20T02:39:37.598Z,0.60
2019-05-20T02:42:08.736Z,0.70
2019-05-20T02:44:39.745Z,0.63
2019-05-20T02:47:10.815Z,0.50
2019-05-20T02:49:41.860Z,0.70
2019-05-20T02:52:12.865Z,0.50
2019-05-20T02:54:43.894Z,0.40
2019-05-20T02:57:15.001Z,0.57
2019-05-20T02:59:46.028Z,0.50
2019-05-20T03:02:17.016Z,0.87
2019-05-20T03:04:48.035Z,0.70
2019-05-20T03:07:19.020Z,0.40
2019-05-20T03:09:50.052Z,0.83
2019-05-20T03:12:21.799Z,0.80
2019-05-20T03:14:52.866Z,0.90
2019-05-20T03:17:23.945Z,1.10
2019-05-20T03:19:55.085Z,0.77
2019-05-20T03:22:26.224Z,1.00
2019-05-20T03:24:57.262Z,1.20
2019-05-20T03:27:28.232Z,0.70
2019-05-20T03:29:59.260Z,1.10
2019-05-20T03:32:30.247Z,1.00
2019-05-20T03:35:02.865Z,1.10
2019-05-20T03:37:33.906Z,1.60
2019-05-20T03:40:05.248Z,0.90
2019-05-20T03:42:36.357Z,1.10
2019-05-20T03:45:07.820Z,1.35
2019-05-20T03:47:38.808Z,1.20
2019-05-20T03:50:10.284Z,1.20
2019-05-20T03:52:41.283Z,1.30
2019-05-20T03:55:12.381Z,1.03
2019-05-20T03:57:43.381Z,1.30
2019-05-20T04:00:14.909Z,1.67
2019-05-20T04:02:45.971Z,1.65
2019-05-20T04:05:17.060Z,1.50
2019-05-20T04:07:48.043Z,1.43
2019-05-20T04:10:19.206Z,1.70
2019-05-20T04:12:50.197Z,1.50
2019-05-20T04:15:21.813Z,1.85
2019-05-20T04:17:52.810Z,1.60
2019-05-20T04:20:23.914Z,2.30
2019-05-20T04:22:54.982Z,1.50
2019-05-20T04:25:26.025Z,1.67
2019-05-20T04:27:57.009Z,2.17
2019-05-20T04:30:29.922Z,2.00
2019-05-20T04:33:00.915Z,2.03
2019-05-20T04:35:32.948Z,1.82
2019-05-20T04:38:04.063Z,2.00
2019-05-20T04:40:35.321Z,2.50
2019-05-20T04:43:06.427Z,2.97
2019-05-20T04:45:37.612Z,2.42
2019-05-20T04:48:28.111Z,2.40
2019-05-20T04:50:59.139Z,2.37
2019-05-20T04:53:30.215Z,2.30
2019-05-20T04:56:01.352Z,2.20
2019-05-20T04:58:32.978Z,2.94
2019-05-20T05:01:05.295Z,2.50
2019-05-20T05:03:36.270Z,2.65
2019-05-20T05:06:07.382Z,2.70
2019-05-20T05:08:38.380Z,2.60
2019-05-20T05:11:10.713Z,2.80
2019-05-20T05:13:41.777Z,2.80
2019-05-20T05:16:13.006Z,3.00
2019-05-20T05:18:44.078Z,2.67
2019-05-20T05:21:15.264Z,2.80
2019-05-20T05:23:58.281Z,3.05
2019-05-20T05:26:19.551Z,3.17
2019-05-20T05:28:50.544Z,2.70
2019-05-20T05:31:22.098Z,3.47
2019-05-20T05:33:54.445Z,3.10
2019-05-20T05:36:26.705Z,3.30
2019-05-20T05:38:58.744Z,2.80
2019-05-20T05:41:29.886Z,2.87
2019-05-20T05:44:00.896Z,2.80
2019-05-20T05:46:33.242Z,2.58
2019-05-20T05:49:04.231Z,2.92
2019-05-20T05:51:35.264Z,2.40
2019-05-20T05:54:06.545Z,3.33
2019-05-20T05:56:37.683Z,3.35
2019-05-20T05:59:08.691Z,2.97
2019-05-20T06:01:39.825Z,3.05
2019-05-20T06:04:11.210Z,2.97
2019-05-20T06:06:42.714Z,3.33
2019-05-20T06:09:13.696Z,2.95
2019-05-20T06:11:44.815Z,3.10
2019-05-20T06:14:15.857Z,2.90
2019-05-20T06:16:46.893Z,3.60
2019-05-20T06:19:17.892Z,2.87
2019-05-20T06:21:49.018Z,3.10
2019-05-20T06:24:20.101Z,3.03
2019-05-20T06:26:51.177Z,3.07
2019-05-20T06:29:22.734Z,2.75
2019-05-20T06:31:53.849Z,3.07
2019-05-20T06:34:25.106Z,2.70
2019-05-20T06:36:58.138Z,3.53
2019-05-20T06:39:29.681Z,2.90
2019-05-20T06:42:00.798Z,3.30
2019-05-20T06:44:31.784Z,3.37
2019-05-20T06:47:03.452Z,3.22
2019-05-20T06:49:34.480Z,3.20
2019-05-20T06:52:05.567Z,2.70
2019-05-20T06:54:36.601Z,3.00
2019-05-20T06:57:07.818Z,2.75
2019-05-20T06:59:40.037Z,2.75
2019-05-20T07:02:11.266Z,3.17
2019-05-20T07:04:42.408Z,3.17
2019-05-20T07:07:20.927Z,4.07
2019-05-20T07:09:46.321Z,3.33
2019-05-20T07:12:17.519Z,2.87
2019-05-20T07:14:48.742Z,3.73
2019-05-20T07:17:19.809Z,3.33
2019-05-20T07:19:50.813Z,3.27
2019-05-20T07:22:22.347Z,3.47
2019-05-20T07:24:53.345Z,3.90
2019-05-20T07:27:24.592Z,3.43
2019-05-20T07:29:55.699Z,3.52
2019-05-20T07:32:26.747Z,3.27
2019-05-20T07:34:57.771Z,3.40
2019-05-20T07:37:28.892Z,4.03
2019-05-20T07:39:59.930Z,3.37
2019-05-20T07:42:30.972Z,3.80
2019-05-20T07:45:02.276Z,3.00
2019-05-20T07:47:33.990Z,3.76
2019-05-20T07:50:05.409Z,3.80
2019-05-20T07:52:36.602Z,3.35
2019-05-20T07:55:08.438Z,3.10
2019-05-20T07:57:41.378Z,3.53
2019-05-20T08:00:12.708Z,4.00
2019-05-20T08:02:43.903Z,3.70
2019-05-20T08:05:15.087Z,3.47
2019-05-20T08:07:52.473Z,3.70
2019-05-20T08:10:19.641Z,3.92
2019-05-20T08:12:50.684Z,3.42
2019-05-20T08:15:22.605Z,3.62
2019-05-20T08:17:54.400Z,3.65
2019-05-20T08:20:26.208Z,3.30
2019-05-20T08:22:57.311Z,3.70
2019-05-20T08:25:28.348Z,3.98
2019-05-20T08:28:02.587Z,3.37
2019-05-20T08:30:35.535Z,3.72
2019-05-20T08:33:07.044Z,3.47
2019-05-20T08:35:38.503Z,3.40
2019-05-20T08:38:10.011Z,3.55
2019-05-20T08:40:42.575Z,3.50
2019-05-20T08:43:13.704Z,3.97
2019-05-20T08:45:44.939Z,4.35
2019-05-20T08:48:16.022Z,3.80
2019-05-20T08:50:47.091Z,3.80
2019-05-20T08:53:18.166Z,4.30
2019-05-20T08:55:50.409Z,3.50
2019-05-20T08:58:22.545Z,4.03
2019-05-20T09:00:53.797Z,4.60
2019-05-20T09:03:24.813Z,3.13
2019-05-20T09:05:55.860Z,4.67
2019-05-20T09:08:26.987Z,3.75
2019-05-20T09:10:58.015Z,4.30
2019-05-20T09:13:29.051Z,4.20
2019-05-20T09:16:00.072Z,3.80
2019-05-20T09:18:31.095Z,4.08
2019-05-20T09:21:02.297Z,4.30
2019-05-20T09:23:33.907Z,4.08
2019-05-20T09:26:05.133Z,4.37
2019-05-20T09:28:36.170Z,4.12
2019-05-20T09:31:07.409Z,3.90
2019-05-20T09:33:38.939Z,4.08
2019-05-20T09:36:10.085Z,4.53
2019-05-20T09:38:41.200Z,4.13
2019-05-20T09:41:12.241Z,4.03
2019-05-20T09:43:43.296Z,3.93
2019-05-20T09:46:14.323Z,4.43
2019-05-20T09:48:45.372Z,3.80
2019-05-20T09:51:16.400Z,4.70
2019-05-20T09:53:47.448Z,5.30
2019-05-20T09:56:19.483Z,4.83
2019-05-20T09:58:50.553Z,4.97
2019-05-20T10:01:22.746Z,4.35
2019-05-20T10:03:53.807Z,4.17
2019-05-20T10:06:24.808Z,4.72
2019-05-20T10:08:55.850Z,4.57
2019-05-20T10:11:26.922Z,4.28
2019-05-20T10:13:57.980Z,5.03
2019-05-20T10:16:29.172Z,4.33
2019-05-20T10:19:00.506Z,4.47
2019-05-20T10:21:31.658Z,4.85
2019-05-20T10:24:04.068Z,4.80
2019-05-20T10:26:36.283Z,5.37
2019-05-20T10:29:07.499Z,5.27
2019-05-20T10:31:39.297Z,4.70
2019-05-20T10:34:10.564Z,4.60
2019-05-20T10:36:41.681Z,5.50
2019-05-20T10:39:12.836Z,4.67
2019-05-20T10:41:43.822Z,5.78
2019-05-20T10:44:14.880Z,5.40
2019-05-20T10:46:45.954Z,5.65
2019-05-20T10:49:17.075Z,5.17
2019-05-20T10:51:48.163Z,4.57
2019-05-20T10:54:19.283Z,4.80
2019-05-20T10:56:50.366Z,5.70
2019-05-20T10:59:21.439Z,4.83
2019-05-20T11:01:52.978Z,5.23
2019-05-20T11:04:24.098Z,5.25
2019-05-20T11:06:55.254Z,5.50
2019-05-20T11:09:26.509Z,5.23
2019-05-20T11:11:57.587Z,5.83
2019-05-20T11:14:28.739Z,5.62
2019-05-20T11:16:59.895Z,5.90
2019-05-20T11:19:31.033Z,5.37
2019-05-20T11:22:02.041Z,6.10
2019-05-20T11:24:34.161Z,5.50
2019-05-20T11:27:05.283Z,5.33
2019-05-20T11:29:36.367Z,5.78
2019-05-20T11:32:07.651Z,5.50
2019-05-20T11:34:38.794Z,5.67
2019-05-20T11:37:09.855Z,6.23
2019-05-20T11:39:40.955Z,6.93
2019-05-20T11:42:12.008Z,5.70
2019-05-20T11:44:43.100Z,5.75
2019-05-20T11:47:14.130Z,5.47
2019-05-20T11:49:45.177Z,6.13
2019-05-20T11:52:16.259Z,5.30
2019-05-20T11:54:47.411Z,4.47
2019-05-20T11:57:18.479Z,5.57
2019-05-20T11:59:49.527Z,5.43
2019-05-20T12:02:20.569Z,5.30
2019-05-20T12:04:51.549Z,5.13
2019-05-20T12:07:22.998Z,4.97
2019-05-20T12:09:53.997Z,4.90
2019-05-20T12:12:25.329Z,5.77
2019-05-20T12:14:56.469Z,4.60
2019-05-20T12:17:27.491Z,5.35
2019-05-20T12:19:58.493Z,5.83
2019-05-20T12:22:29.568Z,5.05
2019-05-20T12:25:00.620Z,6.00
2019-05-20T12:27:31.744Z,4.97
2019-05-20T12:30:02.816Z,5.47
2019-05-20T12:32:34.394Z,6.40
2019-05-20T12:35:06.128Z,6.07
2019-05-20T12:37:37.230Z,5.23
2019-05-20T12:40:09.487Z,6.03
2019-05-20T12:42:40.560Z,5.37
2019-05-20T12:45:11.860Z,5.77
2019-05-20T12:47:42.949Z,5.13
2019-05-20T12:50:14.590Z,5.63
2019-05-20T12:52:45.643Z,5.00
2019-05-20T12:55:17.397Z,5.10
2019-05-20T12:57:48.517Z,5.90
2019-05-20T13:00:20.184Z,5.20
2019-05-20T13:02:51.237Z,4.87
2019-05-20T13:05:23.258Z,5.50
2019-05-20T13:07:54.300Z,6.58
2019-05-20T13:10:30.197Z,5.30
2019-05-20T13:12:58.242Z,6.23
2019-05-20T13:15:29.586Z,5.73
2019-05-20T13:18:00.609Z,5.90
2019-05-20T13:20:31.632Z,5.15
2019-05-20T13:23:04.494Z,5.93
2019-05-20T13:25:35.603Z,6.12
2019-05-20T13:28:06.658Z,5.73
2019-05-20T13:30:38.022Z,7.20
2019-05-20T13:33:09.164Z,5.80
2019-05-20T13:35:40.159Z,6.10
2019-05-20T13:38:11.378Z,5.30
2019-05-20T13:40:47.075Z,5.78
2019-05-20T13:43:15.216Z,5.58
2019-05-20T13:45:48.139Z,5.95
2019-05-20T13:48:18.990Z,6.50
2019-05-20T13:50:49.985Z,6.17
2019-05-20T13:53:21.022Z,6.17
2019-05-20T13:55:52.089Z,6.23
2019-05-20T13:58:23.344Z,6.27
2019-05-20T14:00:54.392Z,6.50
2019-05-20T14:03:25.457Z,7.15
2019-05-20T14:05:56.437Z,6.78
2019-05-20T14:08:28.148Z,6.40
2019-05-20T14:11:04.327Z,5.30
2019-05-20T14:13:34.631Z,6.92
2019-05-20T14:16:05.670Z,7.23
2019-05-20T14:18:36.713Z,6.42
2019-05-20T14:21:07.800Z,6.60
2019-05-20T14:23:38.909Z,5.90
2019-05-20T14:26:09.997Z,7.00
2019-05-20T14:28:41.113Z,6.43
2019-05-20T14:31:12.185Z,6.53
2019-05-20T14:33:43.234Z,7.10
2019-05-20T14:36:36.049Z,7.00
2019-05-20T14:38:47.386Z,6.73
2019-05-20T14:41:21.781Z,5.93
2019-05-20T14:43:51.143Z,6.93
2019-05-20T14:46:23.500Z,6.70
2019-05-20T14:48:54.636Z,6.20
2019-05-20T14:51:25.828Z,6.37
2019-05-20T14:53:56.850Z,5.37
2019-05-20T14:56:27.923Z,6.33
2019-05-20T14:58:58.964Z,6.23
2019-05-20T15:01:30.098Z,4.75
2019-05-20T15:04:01.187Z,4.83
2019-05-20T15:06:32.187Z,5.70
2019-05-20T15:09:04.931Z,5.77
2019-05-20T15:11:38.630Z,6.45
2019-05-20T15:14:08.646Z,5.80
2019-05-20T15:16:41.213Z,5.80
2019-05-20T15:19:12.306Z,5.97
2019-05-20T15:21:43.324Z,5.00
2019-05-20T15:24:14.443Z,6.87
2019-05-20T15:26:45.539Z,7.07
2019-05-20T15:29:27.675Z,6.92
2019-05-20T15:31:49.333Z,6.53
2019-05-20T15:34:20.421Z,6.87
2019-05-20T15:36:51.560Z,6.30
2019-05-20T15:39:23.715Z,6.62
2019-05-20T15:41:54.930Z,6.73
2019-05-20T15:44:26.114Z,6.27
2019-05-20T15:46:57.109Z,5.97
2019-05-20T15:49:28.396Z,6.25
2019-05-20T15:51:59.401Z,6.27
2019-05-20T15:54:30.549Z,6.47
2019-05-20T15:57:01.627Z,6.40
2019-05-20T15:59:45.345Z,7.10
2019-05-20T16:02:05.708Z,6.97
2019-05-20T16:04:37.819Z,5.75
2019-05-20T16:07:08.908Z,6.20
2019-05-20T16:09:40.119Z,6.87
2019-05-20T16:12:12.178Z,6.07
2019-05-20T16:14:43.289Z,6.13
2019-05-20T16:17:14.374Z,6.90
2019-05-20T16:19:45.502Z,6.23
2019-05-20T16:22:16.509Z,6.60
2019-05-20T16:24:47.552Z,5.80
2019-05-20T16:27:18.657Z,6.73
2019-05-20T16:30:05.396Z,6.60
2019-05-20T16:32:23.866Z,6.87
2019-05-20T16:34:54.899Z,6.62
2019-05-20T16:37:26.031Z,6.83
2019-05-20T16:39:57.109Z,6.27
2019-05-20T16:42:28.192Z,6.33
2019-05-20T16:45:00.233Z,6.20
2019-05-20T16:47:31.309Z,6.30
2019-05-20T16:50:02.390Z,6.73
2019-05-20T16:52:34.940Z,5.85
2019-05-20T16:55:06.513Z,6.17
2019-05-20T16:57:39.285Z,5.65
2019-05-20T17:00:29.810Z,5.37
2019-05-20T17:02:44.881Z,5.10
2019-05-20T17:05:16.655Z,5.20
2019-05-20T17:07:47.890Z,4.57
2019-05-20T17:10:19.203Z,5.10
2019-05-20T17:12:50.306Z,4.97
2019-05-20T17:15:21.632Z,4.53
2019-05-20T17:17:52.626Z,4.70
2019-05-20T17:20:24.199Z,4.90
2019-05-20T17:22:55.294Z,5.10
2019-05-20T17:25:26.504Z,5.03
2019-05-20T17:27:57.510Z,5.80
2019-05-20T17:30:28.709Z,5.97
2019-05-20T17:32:59.926Z,5.70
2019-05-20T17:35:31.325Z,6.15
2019-05-20T17:38:02.512Z,5.43
2019-05-20T17:40:33.579Z,5.00
2019-05-20T17:43:05.391Z,6.03
2019-05-20T17:45:36.583Z,6.03
2019-05-20T17:48:07.957Z,5.93
2019-05-20T17:50:39.053Z,5.85
2019-05-20T17:53:10.169Z,6.25
2019-05-20T17:55:41.409Z,6.83
2019-05-20T17:58:13.676Z,6.58
2019-05-20T18:00:45.142Z,6.13
2019-05-20T18:03:16.225Z,6.47
2019-05-20T18:05:47.443Z,5.83
2019-05-20T18:08:18.599Z,7.03
2019-05-20T18:10:50.159Z,6.63
2019-05-20T18:13:21.139Z,6.73
2019-05-20T18:15:52.223Z,7.00
2019-05-20T18:18:24.597Z,7.83
2019-05-20T18:20:56.572Z,7.10
2019-05-20T18:23:27.893Z,7.37
2019-05-20T18:25:58.987Z,7.63
2019-05-20T18:28:29.990Z,8.10
2019-05-20T18:31:01.036Z,7.73
2019-05-20T18:33:32.097Z,7.53
2019-05-20T18:36:03.129Z,8.43
2019-05-20T18:38:35.571Z,8.53
2019-05-20T18:41:07.036Z,7.63
2019-05-20T18:43:38.090Z,8.28
2019-05-20T18:46:09.359Z,9.17
2019-05-20T18:48:40.714Z,6.72
2019-05-20T18:51:11.806Z,7.90
2019-05-20T18:53:42.885Z,8.43
2019-05-20T18:56:13.964Z,7.67
2019-05-20T18:58:45.008Z,8.37
2019-05-20T19:01:19.442Z,8.20
2019-05-20T19:03:48.823Z,8.23
2019-05-20T19:06:19.911Z,8.20
2019-05-20T19:08:51.004Z,8.40
2019-05-20T19:11:22.156Z,7.90
2019-05-20T19:13:54.341Z,8.43
2019-05-20T19:16:25.580Z,9.50
2019-05-20T19:18:56.688Z,9.60
2019-05-20T19:21:28.827Z,8.55
2019-05-20T19:23:59.860Z,7.77
2019-05-20T19:26:30.905Z,8.55
2019-05-20T19:29:01.991Z,7.33
2019-05-20T19:31:33.369Z,7.08
2019-05-20T19:34:05.673Z,8.42
2019-05-20T19:36:36.680Z,9.93
2019-05-20T19:39:08.580Z,8.20
2019-05-20T19:41:41.222Z,8.13
2019-05-20T19:44:13.427Z,9.53
2019-05-20T19:46:44.662Z,8.00
2019-05-20T19:49:15.930Z,10.03
2019-05-20T19:51:46.998Z,7.83
2019-05-20T19:54:18.027Z,9.70
2019-05-20T19:56:49.031Z,9.90
2019-05-20T19:59:20.509Z,9.25
2019-05-20T20:01:51.497Z,8.00
2019-05-20T20:04:22.539Z,8.93
2019-05-20T20:06:53.870Z,9.57
2019-05-20T20:09:24.973Z,7.27
2019-05-20T20:11:56.136Z,7.93
2019-05-20T20:14:27.201Z,8.57
2019-05-20T20:16:58.272Z,8.37
2019-05-20T20:19:29.433Z,10.30
2019-05-20T20:22:00.421Z,7.73
2019-05-20T20:24:31.460Z,9.37
2019-05-20T20:27:02.539Z,6.83
2019-05-20T20:29:33.578Z,7.40
2019-05-20T20:32:05.745Z,7.86
2019-05-20T20:34:36.862Z,8.13
2019-05-20T20:37:08.178Z,9.07
2019-05-20T20:39:39.231Z,8.55
2019-05-20T20:42:10.303Z,9.33
2019-05-20T20:44:41.441Z,8.60
2019-05-20T20:47:12.512Z,8.17
2019-05-20T20:49:43.636Z,8.88
2019-05-20T20:52:14.719Z,8.03
2019-05-20T20:54:45.766Z,9.20
2019-05-20T20:57:16.938Z,7.47
2019-05-20T20:59:50.263Z,6.80
2019-05-20T21:02:20.835Z,6.87
2019-05-20T21:04:52.847Z,7.13
2019-05-20T21:07:24.471Z,5.70
2019-05-20T21:09:55.856Z,5.57
2019-05-20T21:12:26.867Z,5.80
2019-05-20T21:14:58.206Z,5.67
2019-05-20T21:17:29.298Z,6.00
2019-05-20T21:20:00.356Z,5.90
2019-05-20T21:22:31.354Z,6.83
2019-05-20T21:25:02.395Z,7.03
2019-05-20T21:27:33.488Z,7.22
2019-05-20T21:30:07.020Z,7.83
2019-05-20T21:32:38.002Z,8.38
2019-05-20T21:35:09.295Z,8.23
2019-05-20T21:37:40.355Z,7.10
2019-05-20T21:40:11.835Z,6.10
2019-05-20T21:42:42.868Z,5.43
2019-05-20T21:45:14.203Z,6.80
2019-05-20T21:47:45.194Z,4.23
2019-05-20T21:50:16.422Z,5.23
2019-05-20T21:52:47.444Z,4.93
2019-05-20T21:55:18.584Z,6.13
2019-05-20T21:57:49.713Z,5.58
2019-05-20T22:00:27.694Z,5.17
2019-05-20T22:03:00.329Z,5.67
2019-05-20T22:05:31.347Z,5.17
2019-05-20T22:08:04.260Z,5.60
2019-05-20T22:10:36.490Z,6.52
2019-05-20T22:13:07.545Z,7.27
2019-05-20T22:15:38.696Z,5.55
2019-05-20T22:18:09.711Z,5.93
2019-05-20T22:20:42.110Z,5.17
2019-05-20T22:23:31.263Z,5.17
2019-05-20T22:26:02.373Z,5.37
2019-05-20T22:28:34.485Z,5.65
2019-05-20T22:31:06.178Z,5.42
2019-05-20T22:33:41.805Z,4.37
2019-05-20T22:36:09.886Z,4.87
2019-05-20T22:38:40.910Z,5.15
2019-05-20T22:41:12.056Z,4.37
2019-05-20T22:43:43.095Z,4.77
2019-05-20T22:46:14.142Z,4.93
2019-05-20T22:48:45.171Z,4.27
2019-05-20T22:51:16.455Z,4.90
2019-05-20T22:53:47.524Z,4.13
2019-05-20T22:56:18.667Z,4.53
2019-05-20T22:58:49.679Z,4.40
2019-05-20T23:01:20.720Z,4.73
2019-05-20T23:03:56.465Z,3.83
2019-05-20T23:06:24.923Z,4.40
2019-05-20T23:08:56.915Z,2.87
2019-05-20T23:11:27.951Z,2.93
2019-05-20T23:13:58.961Z,2.63
2019-05-20T23:16:30.012Z,2.77
2019-05-20T23:19:01.098Z,2.17
2019-05-20T23:21:32.570Z,2.65
2019-05-20T23:24:03.708Z,2.03
2019-05-20T23:26:34.809Z,2.45
2019-05-20T23:29:06.538Z,3.33
2019-05-20T23:31:37.638Z,2.62
2019-05-20T23:34:12.706Z,2.97
2019-05-20T23:36:41.691Z,2.90
2019-05-20T23:39:12.718Z,2.27
2019-05-20T23:41:43.805Z,2.33
2019-05-20T23:44:14.858Z,2.80
2019-05-20T23:46:45.897Z,2.80
2019-05-20T23:49:16.951Z,2.40
2019-05-20T23:51:48.053Z,2.62
2019-05-20T23:54:19.097Z,2.40
2019-05-20T23:56:50.126Z,2.67
2019-05-20T23:59:21.165Z,1.93
